createdAt,value
2023-01-19T00:00:51.251Z,-1.80
2023-01-19T00:03:18.445Z,-1.90
2023-01-19T00:05:45.667Z,-1.80
2023-01-19T00:08:15.549Z,-1.80
2023-01-19T00:10:44.031Z,-1.80
2023-01-19T00:13:10.773Z,-1.90
2023-01-19T00:15:37.465Z,-1.80
2023-01-19T00:18:04.214Z,-1.90
2023-01-19T00:20:35.578Z,-2.00
2023-01-19T00:23:04.634Z,-1.90
2023-01-19T00:25:31.349Z,-2.00
2023-01-19T00:28:00.536Z,-2.00
2023-01-19T00:30:28.218Z,-2.00
2023-01-19T00:32:54.805Z,-2.00
2023-01-19T00:35:21.431Z,-2.00
2023-01-19T00:37:48.100Z,-2.00
2023-01-19T00:40:14.849Z,-2.00
2023-01-19T00:42:44.170Z,-2.00
2023-01-19T00:45:13.521Z,-2.00
2023-01-19T00:47:40.322Z,-2.10
2023-01-19T00:50:11.752Z,-2.20
2023-01-19T00:52:40.287Z,-2.10
2023-01-19T00:55:15.939Z,-2.10
2023-01-19T00:57:42.773Z,-2.10
2023-01-19T01:00:13.638Z,-2.10
2023-01-19T01:02:41.778Z,-2.00
2023-01-19T01:05:08.973Z,-2.00
2023-01-19T01:07:41.643Z,-2.00
2023-01-19T01:10:10.515Z,-1.90
2023-01-19T01:12:38.132Z,-2.00
2023-01-19T01:15:06.822Z,-2.00
2023-01-19T01:17:33.440Z,-1.90
2023-01-19T01:20:00.196Z,-1.90
2023-01-19T01:22:27.300Z,-1.90
2023-01-19T01:24:54.012Z,-1.90
2023-01-19T01:27:20.783Z,-1.90
2023-01-19T01:29:48.189Z,-1.90
2023-01-19T01:32:15.745Z,-2.00
2023-01-19T01:34:42.808Z,-2.00
2023-01-19T01:37:09.788Z,-2.00
2023-01-19T01:39:36.849Z,-2.10
2023-01-19T01:42:15.437Z,-2.00
2023-01-19T01:44:54.537Z,-2.00
2023-01-19T01:47:36.201Z,-1.90
2023-01-19T01:53:06.089Z,-2.10
2023-01-19T01:55:39.747Z,-2.10
2023-01-19T01:58:07.958Z,-2.10
2023-01-19T02:00:54.665Z,-2.10
2023-01-19T02:03:24.044Z,-2.10
2023-01-19T02:05:51.717Z,-2.10
2023-01-19T02:09:14.414Z,-2.10
2023-01-19T02:12:00.454Z,-2.10
2023-01-19T02:14:27.421Z,-2.00
2023-01-19T02:16:54.043Z,-2.10
2023-01-19T02:19:34.211Z,-2.10
2023-01-19T02:22:11.604Z,-2.10
2023-01-19T02:24:38.367Z,-2.20
2023-01-19T02:27:05.959Z,-2.20
2023-01-19T02:29:33.510Z,-2.20
2023-01-19T02:32:01.990Z,-2.20
2023-01-19T02:34:29.557Z,-2.10
2023-01-19T02:37:07.290Z,-2.00
2023-01-19T02:39:50.616Z,-2.10
2023-01-19T02:42:22.242Z,-2.10
2023-01-19T02:44:51.546Z,-2.10
2023-01-19T02:47:18.319Z,-2.10
2023-01-19T02:49:45.114Z,-2.10
2023-01-19T02:52:17.603Z,-2.00
2023-01-19T02:55:06.255Z,-2.00
2023-01-19T02:58:09.871Z,-1.90
2023-01-19T03:00:49.865Z,-1.70
2023-01-19T03:03:32.279Z,-1.60
2023-01-19T03:06:36.365Z,-1.70
2023-01-19T03:09:11.087Z,-1.80
2023-01-19T03:11:42.330Z,-1.80
2023-01-19T03:14:19.879Z,-1.80
2023-01-19T03:16:49.676Z,-1.80
2023-01-19T03:19:27.160Z,-1.80
2023-01-19T03:21:59.523Z,-1.90
2023-01-19T03:24:30.760Z,-1.90
2023-01-19T03:27:06.725Z,-1.90
2023-01-19T03:29:34.847Z,-2.00
2023-01-19T03:32:06.142Z,-1.90
2023-01-19T03:34:34.631Z,-1.80
2023-01-19T03:37:04.593Z,-1.80
2023-01-19T03:39:31.863Z,-1.70
2023-01-19T03:42:09.255Z,-1.70
2023-01-19T03:44:38.565Z,-1.60
2023-01-19T03:47:07.200Z,-1.60
2023-01-19T03:49:36.127Z,-1.60
2023-01-19T03:52:02.673Z,-1.50
2023-01-19T03:54:29.567Z,-1.60
2023-01-19T03:56:56.153Z,-1.50
2023-01-19T03:59:22.802Z,-1.50
2023-01-19T04:01:49.592Z,-1.40
2023-01-19T04:04:16.547Z,-1.40
2023-01-19T04:06:43.995Z,-1.40
2023-01-19T04:09:10.662Z,-1.40
2023-01-19T04:11:37.311Z,-1.40
2023-01-19T04:14:04.203Z,-1.40
2023-01-19T04:16:30.734Z,-1.40
2023-01-19T04:18:57.259Z,-1.30
2023-01-19T04:21:23.864Z,-1.40
2023-01-19T04:23:50.407Z,-1.30
2023-01-19T04:26:17.007Z,-1.30
2023-01-19T04:28:43.637Z,-1.30
2023-01-19T04:31:10.594Z,-1.30
2023-01-19T04:33:37.342Z,-1.30
2023-01-19T04:36:04.270Z,-1.30
2023-01-19T04:38:30.869Z,-1.20
2023-01-19T04:40:57.466Z,-1.20
2023-01-19T04:43:24.537Z,-1.10
2023-01-19T04:45:51.862Z,-1.10
2023-01-19T04:48:19.428Z,-1.10
2023-01-19T04:50:46.553Z,-1.10
2023-01-19T04:53:13.986Z,-1.10
2023-01-19T04:55:40.854Z,-1.10
2023-01-19T04:58:07.479Z,-1.10
2023-01-19T05:00:34.195Z,-1.00
2023-01-19T05:03:01.656Z,-0.90
2023-01-19T05:05:28.733Z,-0.80
2023-01-19T05:07:55.462Z,-0.70
2023-01-19T05:10:22.166Z,-0.60
2023-01-19T05:12:48.759Z,-0.60
2023-01-19T05:15:15.449Z,-0.60
2023-01-19T05:17:42.367Z,-0.50
2023-01-19T05:20:11.298Z,-0.30
2023-01-19T05:22:39.119Z,-0.30
2023-01-19T05:25:09.249Z,-0.20
2023-01-19T05:27:37.191Z,0.00
2023-01-19T05:30:05.408Z,0.00
2023-01-19T05:32:32.113Z,0.10
2023-01-19T05:34:58.881Z,0.20
2023-01-19T05:37:25.642Z,0.20
2023-01-19T05:39:52.644Z,0.20
2023-01-19T05:42:19.250Z,0.30
2023-01-19T05:44:45.843Z,0.20
2023-01-19T05:47:12.424Z,0.20
2023-01-19T05:49:38.951Z,0.30
2023-01-19T05:52:05.494Z,0.40
2023-01-19T05:54:32.102Z,0.50
2023-01-19T05:56:58.619Z,0.50
2023-01-19T05:59:25.347Z,0.50
2023-01-19T06:01:52.919Z,0.50
2023-01-19T06:04:20.184Z,0.60
2023-01-19T06:06:50.309Z,0.70
2023-01-19T06:09:17.253Z,0.70
2023-01-19T06:11:44.684Z,0.70
2023-01-19T06:14:11.631Z,0.70
2023-01-19T06:16:38.585Z,0.70
2023-01-19T06:19:05.278Z,0.70
2023-01-19T06:21:32.252Z,0.70
2023-01-19T06:23:58.895Z,0.70
2023-01-19T06:26:26.192Z,0.80
2023-01-19T06:28:52.996Z,0.80
2023-01-19T06:31:19.677Z,0.90
2023-01-19T06:33:46.411Z,0.90
2023-01-19T06:36:13.076Z,0.90
2023-01-19T06:38:40.199Z,0.90
2023-01-19T06:41:06.892Z,0.90
2023-01-19T06:43:33.546Z,0.90
2023-01-19T06:46:03.385Z,0.90
2023-01-19T06:48:30.098Z,0.80
2023-01-19T06:50:58.763Z,0.90
2023-01-19T06:53:27.827Z,0.80
2023-01-19T06:55:58.102Z,0.80
2023-01-19T06:58:25.225Z,0.80
2023-01-19T07:00:52.185Z,0.80
2023-01-19T07:03:21.982Z,0.80
2023-01-19T07:05:52.771Z,0.80
2023-01-19T07:08:19.590Z,0.80
2023-01-19T07:11:24.948Z,0.80
2023-01-19T07:13:33.638Z,0.70
2023-01-19T07:16:08.653Z,0.70
2023-01-19T07:18:36.330Z,0.80
2023-01-19T07:21:04.110Z,0.80
2023-01-19T07:23:30.928Z,0.80
2023-01-19T07:25:58.764Z,0.70
2023-01-19T07:28:25.457Z,0.70
2023-01-19T07:30:53.397Z,0.80
2023-01-19T07:33:22.001Z,0.80
2023-01-19T07:35:49.433Z,0.70
2023-01-19T07:38:17.928Z,0.70
2023-01-19T07:40:46.906Z,0.70
2023-01-19T07:43:14.213Z,0.60
2023-01-19T07:45:40.927Z,0.60
2023-01-19T07:48:07.669Z,0.60
2023-01-19T07:50:34.275Z,0.70
2023-01-19T07:53:08.614Z,0.80
2023-01-19T07:55:35.949Z,0.80
2023-01-19T07:58:06.415Z,0.70
2023-01-19T08:00:35.115Z,0.80
2023-01-19T08:03:03.151Z,0.80
2023-01-19T08:05:30.020Z,0.90
2023-01-19T08:07:57.773Z,1.00
2023-01-19T08:10:26.578Z,1.10
2023-01-19T08:12:57.595Z,1.20
2023-01-19T08:15:25.157Z,1.20
2023-01-19T08:18:00.127Z,1.10
2023-01-19T08:20:28.714Z,1.20
2023-01-19T08:22:59.933Z,1.20
2023-01-19T08:25:34.905Z,1.20
2023-01-19T08:28:03.456Z,1.20
2023-01-19T08:30:30.294Z,1.30
2023-01-19T08:33:03.905Z,1.30
2023-01-19T08:35:31.508Z,1.30
2023-01-19T08:38:01.121Z,1.40
2023-01-19T08:40:29.661Z,1.50
2023-01-19T08:43:08.179Z,1.60
2023-01-19T08:45:36.206Z,1.70
2023-01-19T08:48:04.099Z,1.80
2023-01-19T08:50:32.508Z,1.80
2023-01-19T08:53:00.961Z,1.90
2023-01-19T08:55:29.322Z,2.00
2023-01-19T08:57:57.879Z,2.00
2023-01-19T09:00:25.367Z,2.10
2023-01-19T09:02:52.098Z,2.20
2023-01-19T09:05:18.897Z,2.20
2023-01-19T09:07:47.868Z,2.30
2023-01-19T09:10:16.004Z,2.40
2023-01-19T09:12:43.791Z,2.40
2023-01-19T09:15:12.208Z,2.60
2023-01-19T09:17:38.833Z,2.70
2023-01-19T09:20:06.047Z,2.80
2023-01-19T09:22:33.292Z,2.80
2023-01-19T09:25:00.205Z,2.80
2023-01-19T09:27:26.898Z,2.80
2023-01-19T09:29:53.947Z,2.90
2023-01-19T09:32:21.659Z,2.90
2023-01-19T09:34:48.953Z,2.80
2023-01-19T09:37:16.191Z,2.80
2023-01-19T09:39:42.888Z,2.90
2023-01-19T09:42:29.157Z,3.00
2023-01-19T09:44:55.906Z,3.00
2023-01-19T09:47:28.097Z,3.10
2023-01-19T09:50:04.229Z,3.10
2023-01-19T09:52:35.808Z,3.10
2023-01-19T09:55:02.412Z,3.20
2023-01-19T09:57:30.151Z,3.30
2023-01-19T09:59:59.656Z,3.40
2023-01-19T10:02:37.596Z,3.50
2023-01-19T10:05:22.603Z,3.60
2023-01-19T10:08:08.546Z,3.60
2023-01-19T10:10:37.485Z,3.60
2023-01-19T10:13:32.614Z,3.50
2023-01-19T10:16:39.544Z,3.70
2023-01-19T10:19:29.241Z,3.80
2023-01-19T10:22:00.148Z,3.90
2023-01-19T10:24:40.144Z,3.90
2023-01-19T10:27:20.829Z,4.00
2023-01-19T10:29:47.679Z,3.90
2023-01-19T10:32:17.963Z,4.00
2023-01-19T10:34:44.632Z,4.10
2023-01-19T10:37:18.486Z,4.10
2023-01-19T10:39:54.855Z,4.00
2023-01-19T10:42:21.554Z,4.00
2023-01-19T10:44:49.512Z,3.70
2023-01-19T10:47:19.161Z,3.70
2023-01-19T10:49:47.517Z,3.70
2023-01-19T10:52:42.039Z,3.70
2023-01-19T10:55:26.136Z,3.70
2023-01-19T10:57:53.600Z,3.70
2023-01-19T11:00:39.653Z,3.50
2023-01-19T11:03:30.460Z,3.40
2023-01-19T11:06:24.840Z,3.50
2023-01-19T11:08:52.941Z,3.40
2023-01-19T11:11:21.386Z,3.40
2023-01-19T11:14:06.876Z,3.40
2023-01-19T11:16:34.843Z,3.40
2023-01-19T11:19:03.124Z,3.30
2023-01-19T11:21:31.894Z,3.30
2023-01-19T11:24:01.849Z,3.30
2023-01-19T11:26:44.818Z,3.30
2023-01-19T11:29:29.843Z,3.20
2023-01-19T11:32:19.019Z,3.20
2023-01-19T11:34:45.690Z,3.10
2023-01-19T11:37:18.406Z,3.10
2023-01-19T11:39:53.478Z,3.10
2023-01-19T11:42:20.699Z,3.10
2023-01-19T11:45:02.596Z,3.10
2023-01-19T11:47:49.561Z,3.10
2023-01-19T11:50:33.323Z,3.00
2023-01-19T11:53:06.866Z,3.00
2023-01-19T11:55:52.301Z,3.00
2023-01-19T11:58:19.420Z,2.90
2023-01-19T12:00:51.558Z,3.00
2023-01-19T12:03:25.261Z,3.00
2023-01-19T12:05:59.030Z,3.00
2023-01-19T12:08:56.225Z,3.00
2023-01-19T12:11:31.517Z,3.10
2023-01-19T12:13:59.942Z,3.00
2023-01-19T12:16:32.834Z,3.10
2023-01-19T12:19:14.686Z,3.00
2023-01-19T12:21:41.706Z,2.90
2023-01-19T12:24:36.385Z,2.90
2023-01-19T12:27:17.956Z,2.90
2023-01-19T12:29:46.224Z,3.00
2023-01-19T12:32:19.120Z,3.00
2023-01-19T12:34:48.225Z,3.00
2023-01-19T12:37:35.938Z,2.90
2023-01-19T12:40:21.985Z,2.90
2023-01-19T12:42:55.347Z,2.90
2023-01-19T12:45:25.779Z,2.90
2023-01-19T12:47:56.184Z,2.90
2023-01-19T12:50:25.826Z,2.90
2023-01-19T12:52:57.823Z,2.90
2023-01-19T12:55:30.862Z,2.90
2023-01-19T12:58:00.550Z,2.80
2023-01-19T13:00:33.240Z,2.90
2023-01-19T13:03:24.412Z,2.80
2023-01-19T13:05:53.173Z,2.70
2023-01-19T13:08:22.585Z,2.70
2023-01-19T13:11:10.466Z,2.60
2023-01-19T13:14:03.049Z,2.60
2023-01-19T13:16:29.846Z,2.60
2023-01-19T13:19:01.609Z,2.60
2023-01-19T13:21:32.806Z,2.50
2023-01-19T13:24:08.497Z,2.50
2023-01-19T13:26:40.752Z,2.50
2023-01-19T13:29:32.949Z,2.40
2023-01-19T13:32:04.286Z,2.40
2023-01-19T13:34:43.680Z,2.30
2023-01-19T13:37:20.171Z,2.20
2023-01-19T13:39:50.031Z,2.20
2023-01-19T13:42:36.159Z,2.10
2023-01-19T13:45:26.895Z,2.10
2023-01-19T13:47:56.600Z,2.00
2023-01-19T13:50:42.606Z,2.10
2023-01-19T13:53:21.272Z,2.00
2023-01-19T13:55:48.053Z,2.00
2023-01-19T13:58:22.382Z,2.00
2023-01-19T14:00:49.136Z,2.00
2023-01-19T14:03:21.457Z,2.00
2023-01-19T14:05:53.978Z,2.00
2023-01-19T14:08:22.079Z,2.00
2023-01-19T14:10:56.129Z,2.10
2023-01-19T14:13:25.641Z,2.00
2023-01-19T14:15:55.361Z,2.00
2023-01-19T14:18:26.253Z,2.00
2023-01-19T14:21:07.749Z,2.00
2023-01-19T14:23:49.276Z,2.00
2023-01-19T14:26:38.152Z,2.00
2023-01-19T14:29:31.835Z,2.00
2023-01-19T14:32:15.917Z,2.00
2023-01-19T14:34:53.905Z,1.90
2023-01-19T14:37:29.286Z,2.00
2023-01-19T14:40:00.655Z,2.00
2023-01-19T14:42:53.597Z,2.00
2023-01-19T14:45:28.227Z,2.00
2023-01-19T14:48:07.381Z,2.00
2023-01-19T14:50:41.477Z,2.00
2023-01-19T14:53:28.355Z,1.90
2023-01-19T14:55:59.174Z,2.00
2023-01-19T14:58:27.494Z,2.00
2023-01-19T15:00:57.082Z,2.00
2023-01-19T15:03:38.580Z,2.00
2023-01-19T15:06:18.598Z,2.10
2023-01-19T15:08:46.083Z,2.10
2023-01-19T15:11:26.391Z,2.10
2023-01-19T15:13:53.157Z,2.20
2023-01-19T15:16:20.236Z,2.20
2023-01-19T15:18:46.936Z,2.10
2023-01-19T15:21:23.567Z,2.10
2023-01-19T15:23:50.425Z,2.00
2023-01-19T15:26:20.592Z,2.00
2023-01-19T15:28:51.198Z,2.00
2023-01-19T15:31:23.356Z,2.00
2023-01-19T15:33:50.299Z,2.00
2023-01-19T15:36:19.745Z,2.00
2023-01-19T15:38:47.160Z,2.00
2023-01-19T15:41:29.728Z,1.90
2023-01-19T15:43:56.877Z,1.90
2023-01-19T15:46:25.621Z,1.80
2023-01-19T15:48:53.254Z,1.80
2023-01-19T15:51:22.703Z,1.80
2023-01-19T15:53:49.832Z,1.70
2023-01-19T15:56:19.202Z,1.80
2023-01-19T15:58:46.053Z,1.70
2023-01-19T16:01:14.527Z,1.70
2023-01-19T16:03:41.707Z,1.80
2023-01-19T16:06:09.015Z,1.80
2023-01-19T16:08:36.457Z,1.80
2023-01-19T16:11:05.173Z,1.80
2023-01-19T16:13:32.302Z,1.80
2023-01-19T16:16:03.312Z,1.80
2023-01-19T16:18:30.148Z,1.80
2023-01-19T16:20:56.780Z,1.80
2023-01-19T16:23:23.292Z,1.80
2023-01-19T16:26:04.887Z,1.80
2023-01-19T16:28:31.740Z,1.80
2023-01-19T16:30:58.305Z,1.70
2023-01-19T16:33:25.028Z,1.80
2023-01-19T16:35:52.329Z,1.80
2023-01-19T16:38:19.230Z,1.80
2023-01-19T16:40:46.487Z,1.80
2023-01-19T16:43:15.112Z,1.80
2023-01-19T16:46:16.593Z,1.80
2023-01-19T16:48:43.229Z,1.80
2023-01-19T16:51:09.763Z,1.80
2023-01-19T16:53:36.842Z,1.80
2023-01-19T16:56:10.936Z,1.80
2023-01-19T16:58:38.302Z,1.80
2023-01-19T17:05:24.111Z,1.80
2023-01-19T17:07:50.768Z,1.80
2023-01-19T17:10:17.462Z,1.80
2023-01-19T17:12:44.058Z,1.80
2023-01-19T17:15:10.966Z,1.80
2023-01-19T17:17:37.875Z,1.80
2023-01-19T17:20:04.926Z,1.80
2023-01-19T17:22:31.531Z,1.80
2023-01-19T17:24:58.139Z,1.90
2023-01-19T17:27:24.759Z,1.80
2023-01-19T17:29:51.720Z,1.80
2023-01-19T17:32:18.480Z,1.80
2023-01-19T17:34:46.614Z,1.80
2023-01-19T17:37:13.272Z,1.90
2023-01-19T17:39:40.047Z,1.90
2023-01-19T17:42:06.557Z,1.90
2023-01-19T17:44:33.158Z,1.80
2023-01-19T17:47:00.115Z,1.90
2023-01-19T17:49:26.808Z,1.90
2023-01-19T17:51:54.844Z,1.90
2023-01-19T17:54:22.054Z,1.90
2023-01-19T17:56:50.828Z,1.90
2023-01-19T17:59:17.559Z,1.90
2023-01-19T18:01:45.515Z,1.90
2023-01-19T18:04:12.169Z,1.90
2023-01-19T18:06:39.325Z,1.90
2023-01-19T18:09:07.304Z,1.90
2023-01-19T18:11:34.818Z,1.90
2023-01-19T18:14:02.107Z,1.90
2023-01-19T18:16:29.905Z,1.90
2023-01-19T18:18:57.444Z,2.00
2023-01-19T18:21:27.946Z,2.00
2023-01-19T18:24:01.420Z,1.90
2023-01-19T18:26:28.805Z,1.90
2023-01-19T18:28:56.877Z,2.00
2023-01-19T18:31:24.129Z,1.90
2023-01-19T18:33:50.809Z,1.90
2023-01-19T18:36:18.080Z,1.90
2023-01-19T18:38:45.226Z,1.90
2023-01-19T18:41:14.664Z,1.90
2023-01-19T18:43:41.463Z,1.90
2023-01-19T18:46:08.761Z,1.90
2023-01-19T18:48:38.324Z,1.90
2023-01-19T18:51:10.017Z,1.90
2023-01-19T18:53:38.020Z,1.90
2023-01-19T18:56:05.440Z,1.90
2023-01-19T18:58:33.259Z,1.90
2023-01-19T19:01:00.964Z,1.90
2023-01-19T19:03:28.425Z,1.90
2023-01-19T19:05:55.334Z,1.90
2023-01-19T19:08:22.232Z,1.90
2023-01-19T19:10:48.837Z,1.90
2023-01-19T19:13:17.146Z,1.90
2023-01-19T19:15:46.537Z,1.90
2023-01-19T19:18:13.824Z,1.90
2023-01-19T19:20:41.962Z,1.90
2023-01-19T19:23:09.578Z,1.90
2023-01-19T19:25:37.004Z,1.80
2023-01-19T19:28:04.042Z,1.90
2023-01-19T19:30:34.240Z,1.90
2023-01-19T19:33:01.050Z,1.90
2023-01-19T19:35:28.192Z,1.90
2023-01-19T19:37:57.486Z,1.90
2023-01-19T19:40:28.040Z,1.90
2023-01-19T19:42:56.991Z,1.90
2023-01-19T19:45:25.182Z,1.90
2023-01-19T19:47:51.788Z,1.90
2023-01-19T19:50:18.625Z,1.80
2023-01-19T19:52:45.328Z,1.80
2023-01-19T19:55:12.526Z,1.70
2023-01-19T19:57:39.333Z,1.70
2023-01-19T20:00:06.972Z,1.70
2023-01-19T20:02:33.552Z,1.80
2023-01-19T20:05:00.103Z,1.80
2023-01-19T20:07:26.728Z,1.60
2023-01-19T20:09:54.958Z,1.60
2023-01-19T20:12:21.617Z,1.60
2023-01-19T20:14:48.537Z,1.60
2023-01-19T20:17:15.157Z,1.60
2023-01-19T20:19:41.894Z,1.60
2023-01-19T20:22:08.554Z,1.60
2023-01-19T20:24:35.123Z,1.50
2023-01-19T20:27:01.728Z,1.50
2023-01-19T20:29:28.334Z,1.50
2023-01-19T20:31:56.157Z,1.50
2023-01-19T20:34:25.749Z,1.40
2023-01-19T20:36:53.771Z,1.40
2023-01-19T20:39:22.118Z,1.40
2023-01-19T20:41:51.069Z,1.30
2023-01-19T20:44:23.582Z,1.30
2023-01-19T20:46:51.057Z,1.30
2023-01-19T20:49:19.142Z,1.30
2023-01-19T20:51:46.950Z,1.20
2023-01-19T20:54:16.168Z,1.20
2023-01-19T20:56:42.939Z,1.20
2023-01-19T20:59:10.571Z,1.20
2023-01-19T21:01:38.324Z,1.20
2023-01-19T21:04:05.183Z,1.20
2023-01-19T21:06:31.918Z,1.20
2023-01-19T21:08:58.593Z,1.10
2023-01-19T21:11:26.023Z,1.00
2023-01-19T21:13:55.909Z,1.00
2023-01-19T21:16:25.412Z,0.90
2023-01-19T21:18:52.659Z,0.90
2023-01-19T21:21:29.898Z,0.90
2023-01-19T21:23:59.248Z,0.90
2023-01-19T21:26:26.176Z,0.90
2023-01-19T21:28:53.466Z,0.90
2023-01-19T21:31:22.445Z,0.90
2023-01-19T21:33:53.125Z,0.90
2023-01-19T21:36:21.106Z,0.90
2023-01-19T21:38:48.154Z,0.80
2023-01-19T21:41:16.221Z,0.80
2023-01-19T21:43:43.092Z,0.80
2023-01-19T21:46:14.313Z,0.70
2023-01-19T21:48:42.119Z,0.70
2023-01-19T21:51:09.085Z,0.70
2023-01-19T21:53:35.711Z,0.70
2023-01-19T21:56:02.297Z,0.70
2023-01-19T21:58:28.911Z,0.70
2023-01-19T22:01:04.596Z,0.70
2023-01-19T22:03:31.286Z,0.70
2023-01-19T22:06:07.193Z,0.70
2023-01-19T22:08:34.278Z,0.60
2023-01-19T22:11:08.981Z,0.60
2023-01-19T22:13:38.371Z,0.50
2023-01-19T22:16:08.731Z,0.60
2023-01-19T22:18:36.573Z,0.70
2023-01-19T22:21:11.345Z,0.70
2023-01-19T22:23:38.573Z,0.70
2023-01-19T22:26:06.094Z,0.70
2023-01-19T22:28:32.748Z,0.70
2023-01-19T22:31:14.186Z,0.70
2023-01-19T22:33:40.960Z,0.80
2023-01-19T22:36:13.193Z,0.80
2023-01-19T22:38:40.987Z,0.80
2023-01-19T22:41:19.245Z,0.80
2023-01-19T22:43:46.538Z,0.80
2023-01-19T22:46:13.397Z,0.70
2023-01-19T22:48:40.479Z,0.70
2023-01-19T22:51:07.500Z,0.70
2023-01-19T22:53:34.176Z,0.70
2023-01-19T22:56:08.552Z,0.80
2023-01-19T22:58:35.078Z,0.70
2023-01-19T23:01:09.284Z,0.80
2023-01-19T23:03:37.140Z,0.80
2023-01-19T23:06:12.923Z,0.80
2023-01-19T23:08:40.319Z,0.80
2023-01-19T23:11:18.939Z,0.70
2023-01-19T23:13:46.248Z,0.60
2023-01-19T23:16:13.009Z,0.60
2023-01-19T23:18:40.755Z,0.60
2023-01-19T23:21:16.506Z,0.60
2023-01-19T23:23:43.689Z,0.50
2023-01-19T23:26:12.887Z,0.40
2023-01-19T23:28:40.412Z,0.40
2023-01-19T23:31:13.171Z,0.40
2023-01-19T23:33:41.429Z,0.30
2023-01-19T23:36:08.467Z,0.40
2023-01-19T23:38:35.004Z,0.30
2023-01-19T23:41:01.547Z,0.30
2023-01-19T23:43:28.066Z,0.40
2023-01-19T23:45:55.038Z,0.30
2023-01-19T23:48:21.904Z,0.30
2023-01-19T23:50:48.545Z,0.40
2023-01-19T23:53:15.113Z,0.30
2023-01-19T23:55:41.858Z,0.30
2023-01-19T23:58:08.372Z,0.20
